Time;durP1;ratioP1;P1;durP2;ratioP2;P2;SDS_P1;SDS_P2;PMS_P1;PMS_P2;Temp;Humidity;BMP_temperature;BMP_pressure;BME280_temperature;BME280_humidity;BME280_pressure;Samples;Min_cycle;Max_cycle;Signal;HPM_P1;HPM_P2
2024/03/11 00:02:02;;;;;;;15.40;7.90;;;;;;;10.52;70.24;99617.08;110925;1210;97743;-75
2024/03/11 00:04:28;;;;;;;15.10;8.30;;;;;;;10.51;70.41;99629.61;110926;1206;96525;-76
2024/03/11 00:06:54;;;;;;;13.80;7.80;;;;;;;10.51;70.41;99630.01;110899;1211;139195;-76
2024/03/11 00:09:28;;;;;;;14.00;7.50;;;;;;;10.51;70.55;99630.89;110983;1211;97578;-76
2024/03/11 00:11:56;;;;;;;16.90;7.70;;;;;;;10.52;70.56;99635.63;110717;1219;140560;-77
2024/03/11 00:14:26;;;;;;;13.50;7.80;;;;;;;10.51;70.61;99639.60;110854;1212;96473;-76
2024/03/11 00:16:56;;;;;;;16.50;8.30;;;;;;;10.50;70.61;99637.38;111040;1206;110996;-76
2024/03/11 00:19:23;;;;;;;14.30;7.70;;;;;;;10.52;70.72;99638.11;110986;1206;139289;-77
2024/03/11 00:21:56;;;;;;;15.90;8.70;;;;;;;10.50;70.71;99634.15;111033;1206;107443;-77
2024/03/11 00:24:23;;;;;;;13.30;7.80;;;;;;;10.48;70.81;99621.23;111029;1206;138961;-76
2024/03/11 00:26:49;;;;;;;16.00;8.70;;;;;;;10.46;70.84;99623.48;111251;1206;98983;-77
2024/03/11 00:29:19;;;;;;;15.80;8.40;;;;;;;10.45;70.96;99617.10;111031;1211;138722;-76
2024/03/11 00:31:45;;;;;;;15.90;8.20;;;;;;;10.44;70.90;99625.38;111085;1206;99595;-76
2024/03/11 00:34:11;;;;;;;16.90;8.90;;;;;;;10.45;71.00;99640.55;110967;1209;97692;-76
2024/03/11 00:36:37;;;;;;;15.30;8.40;;;;;;;10.43;70.90;99630.10;110892;1212;138662;-76
2024/03/11 00:39:03;;;;;;;14.20;8.50;;;;;;;10.44;71.10;99635.21;110918;1206;110466;-76
2024/03/11 00:41:28;;;;;;;16.00;8.30;;;;;;;10.43;71.13;99639.20;110778;1210;138830;-76
2024/03/11 00:43:55;;;;;;;18.50;9.10;;;;;;;10.42;71.23;99642.45;111124;1206;97695;-76
2024/03/11 00:46:20;;;;;;;18.10;9.40;;;;;;;10.42;71.19;99649.08;110901;1206;98647;-76
2024/03/11 00:48:45;;;;;;;15.90;8.80;;;;;;;10.42;71.22;99651.75;110687;1206;138699;-77
2024/03/11 00:51:11;;;;;;;16.60;8.10;;;;;;;10.40;71.21;99646.88;110974;1206;97648;-76
2024/03/11 00:53:37;;;;;;;16.20;8.80;;;;;;;10.39;71.33;99646.80;110783;1211;139389;-76
2024/03/11 00:56:03;;;;;;;16.80;8.50;;;;;;;10.40;71.30;99643.31;111031;1206;97498;-77
2024/03/11 00:58:28;;;;;;;16.10;8.80;;;;;;;10.38;71.42;99639.48;110945;1212;97777;-77
2024/03/11 01:00:55;;;;;;;14.70;8.10;;;;;;;10.38;71.38;99637.54;110828;1206;138784;-76
2024/03/11 01:03:22;;;;;;;14.70;8.60;;;;;;;10.37;71.45;99633.17;110868;1212;97598;-74
2024/03/11 01:05:49;;;;;;;19.20;8.80;;;;;;;10.33;71.47;99626.23;110843;1212;139370;-74
2024/03/11 01:08:16;;;;;;;17.90;9.60;;;;;;;10.33;71.51;99627.14;110943;1212;97621;-74
2024/03/11 01:10:42;;;;;;;16.00;9.10;;;;;;;10.33;71.63;99629.64;111045;1212;97703;-77
2024/03/11 01:13:07;;;;;;;19.10;9.50;;;;;;;10.31;71.62;99629.77;110770;1212;139127;-76
2024/03/11 01:15:32;;;;;;;21.70;8.70;;;;;;;10.29;71.56;99630.78;110888;1212;97683;-76
2024/03/11 01:17:58;;;;;;;17.80;9.80;;;;;;;10.28;71.70;99626.36;110886;1211;138904;-76
2024/03/11 01:20:24;;;;;;;14.80;8.30;;;;;;;10.28;71.73;99635.66;110787;1212;97690;-76
2024/03/11 01:22:50;;;;;;;18.80;9.50;;;;;;;10.28;71.75;99628.16;110842;1211;97704;-76
2024/03/11 01:25:15;;;;;;;16.10;8.60;;;;;;;10.28;71.86;99633.67;111105;1206;138907;-76
2024/03/11 01:27:41;;;;;;;15.40;8.50;;;;;;;10.28;71.88;99633.83;110926;1210;97707;-77
2024/03/11 01:30:08;;;;;;;16.90;8.70;;;;;;;10.27;71.89;99627.87;110886;1206;139371;-76
2024/03/11 01:32:44;;;;;;;15.60;8.50;;;;;;;10.24;71.88;99624.27;111086;1211;97653;-75
2024/03/11 01:35:11;;;;;;;14.40;8.30;;;;;;;10.22;71.97;99615.48;110851;1206;138702;-75
2024/03/11 01:37:37;;;;;;;17.10;9.30;;;;;;;10.21;71.98;99612.69;111046;1211;97690;-77
2024/03/11 01:40:03;;;;;;;20.20;9.70;;;;;;;10.20;72.12;99612.54;111074;1206;97578;-76
2024/03/11 01:42:30;;;;;;;18.30;8.70;;;;;;;10.19;72.18;99606.89;110810;1209;138892;-76
2024/03/11 01:44:56;;;;;;;17.80;9.10;;;;;;;10.16;72.36;99601.85;110578;1206;97671;-76
2024/03/11 01:47:24;;;;;;;17.20;9.40;;;;;;;10.12;72.39;99597.63;110774;1206;139626;-75
2024/03/11 01:49:52;;;;;;;13.40;8.40;;;;;;;10.06;72.44;99603.16;110608;1206;97550;-75
2024/03/11 01:52:27;;;;;;;14.70;8.40;;;;;;;10.03;72.54;99605.31;110451;1212;97735;-75
2024/03/11 01:54:55;;;;;;;18.40;9.20;;;;;;;10.00;72.75;99602.06;110568;1212;140151;-75
2024/03/11 01:57:23;;;;;;;16.00;8.40;;;;;;;9.98;72.74;99595.57;110515;1209;97941;-76
2024/03/11 01:59:51;;;;;;;22.00;8.90;;;;;;;9.94;72.82;99590.66;110830;1206;138496;-75
2024/03/11 02:02:20;;;;;;;16.90;8.10;;;;;;;9.93;72.91;99589.27;111020;1210;99442;-76
2024/03/11 02:04:46;;;;;;;15.60;8.30;;;;;;;9.92;72.99;99593.09;110848;1212;107741;-76
2024/03/11 02:07:13;;;;;;;18.50;9.20;;;;;;;9.91;73.04;99587.43;110845;1206;138850;-75
2024/03/11 02:09:42;;;;;;;20.30;9.50;;;;;;;9.89;73.11;99586.68;110887;1206;97680;-75
2024/03/11 02:12:11;;;;;;;18.90;9.40;;;;;;;9.85;73.27;99583.35;110858;1206;138423;-76
2024/03/11 02:14:36;;;;;;;17.10;9.50;;;;;;;9.84;73.29;99582.66;111159;1209;98156;-76
2024/03/11 02:17:04;;;;;;;13.70;8.00;;;;;;;9.85;73.37;99585.13;110968;1212;97719;-76
2024/03/11 02:19:29;;;;;;;18.00;9.10;;;;;;;9.83;73.45;99578.06;110797;1212;139599;-76
2024/03/11 02:21:55;;;;;;;20.30;10.40;;;;;;;9.82;73.54;99574.06;111086;1206;97606;-76
2024/03/11 02:24:20;;;;;;;17.40;9.60;;;;;;;9.80;73.64;99560.44;110846;1206;139964;-75
2024/03/11 02:26:48;;;;;;;20.10;9.60;;;;;;;9.76;73.72;99553.12;110991;1212;97699;-76
2024/03/11 02:29:16;;;;;;;16.80;8.50;;;;;;;9.74;73.85;99546.48;110920;1212;138653;-75
2024/03/11 02:31:43;;;;;;;14.50;8.10;;;;;;;9.74;74.01;99541.48;111011;1210;111501;-76
2024/03/11 02:34:08;;;;;;;18.20;9.20;;;;;;;9.73;73.99;99543.52;110965;1209;97638;-76
2024/03/11 02:36:33;;;;;;;15.50;9.10;;;;;;;9.70;74.04;99545.30;110854;1207;138388;-76
2024/03/11 02:38:59;;;;;;;15.30;8.90;;;;;;;9.69;74.17;99541.59;111019;1212;97555;-76
2024/03/11 02:41:24;;;;;;;17.40;9.10;;;;;;;9.69;74.25;99542.30;110834;1212;138850;-75
2024/03/11 02:43:49;;;;;;;17.60;9.60;;;;;;;9.67;74.26;99535.66;111098;1206;97665;-76
2024/03/11 02:46:15;;;;;;;15.50;9.10;;;;;;;9.64;74.44;99538.14;111041;1206;99066;-76
2024/03/11 02:48:40;;;;;;;16.40;8.30;;;;;;;9.61;74.47;99541.88;110807;1206;138550;-76
2024/03/11 02:51:05;;;;;;;16.70;8.70;;;;;;;9.59;74.55;99538.05;110954;1206;97602;-76
2024/03/11 02:53:31;;;;;;;19.00;9.60;;;;;;;9.58;74.61;99539.36;110802;1206;139549;-76
2024/03/11 02:56:01;;;;;;;17.40;9.40;;;;;;;9.57;74.75;99536.73;111073;1206;97629;-76
2024/03/11 02:58:28;;;;;;;15.30;8.80;;;;;;;9.57;74.78;99541.19;110532;1212;111161;-75
2024/03/11 03:00:54;;;;;;;13.70;8.00;;;;;;;9.54;74.86;99544.08;110441;1206;139647;-76
2024/03/11 03:03:19;;;;;;;15.30;8.80;;;;;;;9.54;74.97;99539.10;110844;1210;97652;-76
2024/03/11 03:05:44;;;;;;;14.00;8.50;;;;;;;9.54;75.03;99543.86;110875;1209;138955;-75
2024/03/11 03:08:09;;;;;;;13.80;8.30;;;;;;;9.56;75.06;99541.29;111039;1206;97608;-76
2024/03/11 03:10:38;;;;;;;15.10;8.50;;;;;;;9.56;75.20;99543.40;111016;1206;97789;-76
2024/03/11 03:13:03;;;;;;;15.40;8.60;;;;;;;9.56;75.22;99546.08;110918;1206;139746;-76
2024/03/11 03:15:29;;;;;;;17.40;8.10;;;;;;;9.54;75.26;99545.86;110950;1212;97598;-75
2024/03/11 03:17:54;;;;;;;16.10;8.70;;;;;;;9.51;75.29;99549.73;111003;1209;138655;-75
2024/03/11 03:20:19;;;;;;;16.60;8.90;;;;;;;9.51;75.49;99551.02;111008;1209;98017;-76
2024/03/11 03:22:45;;;;;;;16.30;8.40;;;;;;;9.51;75.47;99551.73;111026;1206;97694;-76
2024/03/11 03:25:10;;;;;;;14.80;8.10;;;;;;;9.51;75.55;99554.39;110882;1221;138457;-76
2024/03/11 03:27:35;;;;;;;16.10;8.30;;;;;;;9.53;75.63;99553.75;110926;1206;97731;-75
2024/03/11 03:30:01;;;;;;;14.00;7.90;;;;;;;9.53;75.65;99560.33;110976;1206;138488;-76
2024/03/11 03:32:26;;;;;;;19.30;9.10;;;;;;;9.52;75.68;99563.08;110951;1212;97658;-76
2024/03/11 03:34:51;;;;;;;17.10;9.10;;;;;;;9.51;75.71;99568.86;111033;1206;100145;-76
2024/03/11 03:37:17;;;;;;;16.90;8.90;;;;;;;9.48;75.90;99571.49;110898;1210;139106;-76
2024/03/11 03:39:42;;;;;;;15.10;8.10;;;;;;;9.47;75.93;99570.84;110954;1206;98157;-76
2024/03/11 03:42:07;;;;;;;17.80;8.70;;;;;;;9.51;76.02;99570.46;110891;1222;139993;-76
2024/03/11 03:44:32;;;;;;;14.00;8.50;;;;;;;9.52;76.03;99570.95;110928;1212;97589;-76
2024/03/11 03:46:58;;;;;;;17.90;9.50;;;;;;;9.50;76.01;99569.60;111072;1206;97603;-75
2024/03/11 03:49:24;;;;;;;17.20;8.90;;;;;;;9.48;76.10;99566.02;110808;1210;138315;-76
2024/03/11 03:51:50;;;;;;;15.30;9.10;;;;;;;9.48;76.25;99568.86;110966;1206;97575;-76
2024/03/11 03:54:17;;;;;;;15.50;9.00;;;;;;;9.45;76.23;99569.52;110962;1209;138628;-77
2024/03/11 03:56:43;;;;;;;17.20;9.40;;;;;;;9.43;76.23;99566.59;110956;1209;97675;-76
2024/03/11 03:59:08;;;;;;;19.30;8.80;;;;;;;9.43;76.33;99570.88;111047;1206;97663;-76
2024/03/11 04:01:33;;;;;;;17.00;9.00;;;;;;;9.45;76.51;99563.46;110809;1206;139561;-76
2024/03/11 04:03:59;;;;;;;16.20;9.20;;;;;;;9.47;76.49;99558.55;110930;1206;97700;-75
2024/03/11 04:06:25;;;;;;;15.30;8.60;;;;;;;9.46;76.47;99560.59;110906;1206;138731;-75
2024/03/11 04:08:51;;;;;;;16.90;9.60;;;;;;;9.44;76.57;99564.94;110947;1209;112233;-75
2024/03/11 04:11:16;;;;;;;15.50;8.90;;;;;;;9.44;76.60;99564.75;110908;1206;138773;-74
2024/03/11 04:13:42;;;;;;;17.80;9.80;;;;;;;9.45;76.72;99561.85;110950;1206;97679;-76
2024/03/11 04:16:07;;;;;;;19.70;10.30;;;;;;;9.47;76.80;99562.45;110939;1206;97675;-76
2024/03/11 04:18:32;;;;;;;13.60;8.50;;;;;;;9.48;76.71;99564.04;110862;1206;138786;-75
2024/03/11 04:20:58;;;;;;;14.70;8.70;;;;;;;9.47;76.84;99563.20;110918;1207;107964;-76
2024/03/11 04:23:25;;;;;;;18.70;9.70;;;;;;;9.45;76.83;99562.93;110845;1209;139439;-75
2024/03/11 04:25:51;;;;;;;15.20;9.60;;;;;;;9.43;76.90;99562.66;110924;1212;97702;-75
2024/03/11 04:28:18;;;;;;;18.50;9.90;;;;;;;9.43;76.99;99565.88;111057;1209;97791;-75
2024/03/11 04:30:48;;;;;;;16.00;9.60;;;;;;;9.43;77.08;99564.08;110704;1206;139130;-75
2024/03/11 04:33:16;;;;;;;17.70;9.90;;;;;;;9.44;77.03;99558.53;111037;1206;97677;-76
2024/03/11 04:35:43;;;;;;;16.90;9.20;;;;;;;9.43;77.12;99561.77;110922;1206;139243;-76
2024/03/11 04:38:09;;;;;;;16.70;10.70;;;;;;;9.41;77.11;99561.52;111097;1209;97600;-75
2024/03/11 04:40:37;;;;;;;20.60;10.20;;;;;;;9.42;77.15;99558.46;111039;1209;97684;-76
2024/03/11 04:43:03;;;;;;;16.30;9.80;;;;;;;9.41;77.32;99556.17;110829;1206;138848;-76
2024/03/11 04:45:29;;;;;;;19.20;10.70;;;;;;;9.40;77.23;99559.64;111034;1206;97667;-76
2024/03/11 04:47:58;;;;;;;21.00;10.70;;;;;;;9.40;77.36;99559.09;110881;1209;138973;-75
2024/03/11 04:50:25;;;;;;;17.80;9.90;;;;;;;9.41;77.38;99557.43;110942;1209;99996;-76
2024/03/11 04:52:56;;;;;;;19.00;10.30;;;;;;;9.41;77.47;99561.36;111067;1206;97798;-76
2024/03/11 04:55:22;;;;;;;19.00;10.60;;;;;;;9.41;77.50;99564.57;110897;1206;138639;-76
2024/03/11 04:57:48;;;;;;;21.60;10.20;;;;;;;9.40;77.51;99565.69;111094;1210;97815;-76
2024/03/11 05:00:14;;;;;;;18.20;9.90;;;;;;;9.41;77.57;99564.95;110943;1212;138925;-76
2024/03/11 05:02:39;;;;;;;20.00;9.90;;;;;;;9.42;77.63;99568.81;111010;1206;107414;-76
2024/03/11 05:05:09;;;;;;;16.80;10.00;;;;;;;9.42;77.73;99571.09;110986;1206;98213;-76
2024/03/11 05:07:35;;;;;;;16.00;9.90;;;;;;;9.42;77.69;99572.22;110890;1209;138705;-76
2024/03/11 05:10:01;;;;;;;18.90;9.80;;;;;;;9.39;77.70;99570.92;110958;1206;97613;-75
2024/03/11 05:12:26;;;;;;;20.20;10.00;;;;;;;9.39;77.81;99571.30;110819;1210;139170;-75
2024/03/11 05:14:52;;;;;;;21.10;10.80;;;;;;;9.40;77.79;99574.83;110970;1206;97637;-76
2024/03/11 05:17:17;;;;;;;19.10;10.20;;;;;;;9.39;77.79;99580.01;110868;1211;138995;-75
2024/03/11 05:19:42;;;;;;;16.90;10.10;;;;;;;9.39;77.85;99581.42;111001;1206;99158;-76
2024/03/11 05:22:08;;;;;;;17.20;10.10;;;;;;;9.37;77.99;99588.85;110984;1209;97579;-76
2024/03/11 05:24:34;;;;;;;18.90;9.30;;;;;;;9.37;77.99;99586.19;110956;1212;139141;-76
2024/03/11 05:26:59;;;;;;;18.30;10.40;;;;;;;9.38;78.03;99585.63;110979;1211;111714;-76
2024/03/11 05:29:25;;;;;;;19.10;9.70;;;;;;;9.37;78.06;99588.14;110864;1206;139444;-75
2024/03/11 05:31:51;;;;;;;17.20;9.90;;;;;;;9.38;78.15;99590.23;111033;1211;98898;-76
2024/03/11 05:34:16;;;;;;;16.40;9.80;;;;;;;9.37;78.13;99593.87;110984;1209;97822;-76
2024/03/11 05:36:42;;;;;;;15.60;9.20;;;;;;;9.36;78.17;99594.30;110828;1210;138397;-76
2024/03/11 05:39:09;;;;;;;21.40;10.80;;;;;;;9.36;78.29;99596.40;111053;1206;97719;-76
2024/03/11 05:41:35;;;;;;;15.30;9.20;;;;;;;9.38;78.34;99598.44;110804;1205;138703;-76
2024/03/11 05:44:03;;;;;;;17.40;10.30;;;;;;;9.38;78.31;99594.52;110974;1208;97704;-76
2024/03/11 05:46:28;;;;;;;20.10;10.20;;;;;;;9.36;78.40;99591.97;110965;1206;97641;-75
2024/03/11 05:48:55;;;;;;;16.70;9.60;;;;;;;9.36;78.45;99594.80;110924;1210;139152;-76
2024/03/11 05:51:20;;;;;;;18.70;10.30;;;;;;;9.36;78.47;99603.16;110928;1206;97588;-76
2024/03/11 05:53:48;;;;;;;19.00;9.90;;;;;;;9.36;78.54;99603.92;110829;1206;139533;-77
2024/03/11 05:56:19;;;;;;;14.90;9.50;;;;;;;9.35;78.60;99607.34;111009;1206;97597;-78
2024/03/11 05:58:44;;;;;;;16.60;9.20;;;;;;;9.35;78.65;99608.92;110727;1210;99387;-75
2024/03/11 06:01:10;;;;;;;17.00;10.30;;;;;;;9.35;78.72;99611.07;110458;1206;138705;-75
2024/03/11 06:03:36;;;;;;;15.70;9.50;;;;;;;9.36;78.74;99614.41;110687;1206;97633;-75
2024/03/11 06:06:03;;;;;;;18.40;10.00;;;;;;;9.37;78.82;99617.04;110337;1209;139287;-74
2024/03/11 06:08:28;;;;;;;19.20;10.50;;;;;;;9.37;78.83;99618.11;110440;1209;97633;-75
2024/03/11 06:10:54;;;;;;;16.80;10.00;;;;;;;9.37;78.92;99615.63;110513;1209;97806;-75
2024/03/11 06:13:21;;;;;;;19.10;9.80;;;;;;;9.36;79.05;99617.08;110826;1210;140187;-74
2024/03/11 06:15:46;;;;;;;16.90;9.60;;;;;;;9.38;79.03;99615.58;110902;1206;98344;-73
2024/03/11 06:18:11;;;;;;;16.40;9.10;;;;;;;9.39;79.06;99616.91;110800;1212;138754;-73
2024/03/11 06:20:37;;;;;;;18.10;10.10;;;;;;;9.40;79.11;99618.49;110931;1206;98496;-74
2024/03/11 06:23:04;;;;;;;21.00;9.90;;;;;;;9.40;79.20;99613.85;111076;1218;96472;-74
2024/03/11 06:25:30;;;;;;;19.40;9.50;;;;;;;9.41;79.23;99619.66;110904;1209;138931;-74
2024/03/11 06:27:56;;;;;;;16.30;10.20;;;;;;;9.40;79.22;99617.77;111047;1209;97578;-74
2024/03/11 06:30:22;;;;;;;15.30;9.70;;;;;;;9.40;79.37;99624.20;110889;1212;139147;-75
2024/03/11 06:32:51;;;;;;;18.10;10.80;;;;;;;9.40;79.34;99628.48;110983;1206;97681;-74
2024/03/11 06:35:17;;;;;;;20.80;11.10;;;;;;;9.38;79.43;99634.44;111242;1205;140321;-73
2024/03/11 06:37:46;;;;;;;17.20;10.10;;;;;;;9.39;79.50;99636.02;111041;1209;97796;-75
2024/03/11 06:40:17;;;;;;;15.30;10.90;;;;;;;9.37;79.55;99637.71;110923;1207;108906;-74
2024/03/11 06:42:46;;;;;;;21.40;10.30;;;;;;;9.36;79.58;99636.19;110936;1206;139334;-74
2024/03/11 06:45:11;;;;;;;15.10;10.00;;;;;;;9.34;79.65;99637.15;111002;1206;100111;-74
2024/03/11 06:47:37;;;;;;;18.20;10.50;;;;;;;9.33;79.75;99638.29;110812;1209;139374;-74
2024/03/11 06:50:02;;;;;;;20.20;10.60;;;;;;;9.34;79.82;99635.56;111101;1210;97684;-74
2024/03/11 06:52:28;;;;;;;19.90;10.80;;;;;;;9.35;79.95;99638.73;110959;1206;97587;-74
2024/03/11 06:54:55;;;;;;;20.20;11.20;;;;;;;9.36;79.93;99638.67;110930;1210;139407;-74
2024/03/11 06:57:20;;;;;;;19.90;11.40;;;;;;;9.38;80.00;99640.34;111059;1205;98625;-74
2024/03/11 06:59:45;;;;;;;19.10;11.30;;;;;;;9.39;80.03;99638.70;110788;1206;138950;-73
2024/03/11 07:02:13;;;;;;;26.10;12.70;;;;;;;9.40;80.06;99636.66;111082;1209;97710;-74
2024/03/11 07:04:39;;;;;;;19.10;10.60;;;;;;;9.40;80.21;99635.42;110816;1209;113114;-74
2024/03/11 07:07:06;;;;;;;17.80;10.60;;;;;;;9.41;80.23;99636.80;110459;1205;138860;-74
2024/03/11 07:09:33;;;;;;;19.40;10.70;;;;;;;9.44;80.28;99636.46;110413;1210;102559;-73
2024/03/11 07:11:59;;;;;;;17.50;10.50;;;;;;;9.45;80.32;99638.91;110756;1211;139658;-74
2024/03/11 07:14:25;;;;;;;22.20;10.40;;;;;;;9.47;80.41;99634.13;110911;1206;96513;-73
2024/03/11 07:16:53;;;;;;;18.80;10.40;;;;;;;9.48;80.41;99637.33;110965;1209;97690;-74
2024/03/11 07:19:19;;;;;;;21.90;10.20;;;;;;;9.49;80.53;99638.86;110849;1209;138680;-74
2024/03/11 07:21:45;;;;;;;17.90;10.20;;;;;;;9.51;80.58;99641.78;110952;1205;99124;-74
2024/03/11 07:24:10;;;;;;;18.50;10.50;;;;;;;9.54;80.64;99642.53;110853;1209;139032;-72
2024/03/11 07:26:38;;;;;;;15.90;9.90;;;;;;;9.54;80.60;99642.65;111085;1206;97721;-75
2024/03/11 07:29:04;;;;;;;16.70;10.00;;;;;;;9.56;80.69;99640.60;110952;1206;108000;-75
2024/03/11 07:31:30;;;;;;;15.30;10.10;;;;;;;9.58;80.70;99645.47;110858;1206;138932;-75
2024/03/11 07:33:55;;;;;;;20.00;10.20;;;;;;;9.58;80.70;99647.11;111057;1205;97699;-75
2024/03/11 07:36:20;;;;;;;19.10;10.90;;;;;;;9.57;80.75;99648.73;110955;1209;138913;-75
2024/03/11 07:38:46;;;;;;;17.50;11.10;;;;;;;9.57;80.90;99650.71;110852;1211;97675;-73
2024/03/11 07:41:12;;;;;;;18.00;9.90;;;;;;;9.58;80.91;99653.17;111052;1210;98349;-73
2024/03/11 07:43:38;;;;;;;18.90;10.60;;;;;;;9.60;80.99;99657.67;110979;1206;138180;-72
2024/03/11 07:46:04;;;;;;;19.40;10.20;;;;;;;9.63;80.99;99660.93;110942;1206;97651;-73
2024/03/11 07:48:32;;;;;;;16.20;10.70;;;;;;;9.63;80.96;99656.27;110863;1210;139050;-71
2024/03/11 07:50:58;;;;;;;18.40;10.00;;;;;;;9.65;81.04;99651.19;111155;1206;97683;-74
2024/03/11 07:53:24;;;;;;;18.80;10.10;;;;;;;9.65;81.08;99653.28;110897;1206;138987;-69
2024/03/11 07:55:51;;;;;;;20.00;10.80;;;;;;;9.67;81.11;99654.79;111162;1205;97658;-71
2024/03/11 07:58:17;;;;;;;18.50;11.00;;;;;;;9.68;81.18;99660.80;111134;1206;98127;-70
2024/03/11 08:00:42;;;;;;;18.70;10.90;;;;;;;9.69;81.19;99667.37;111025;1209;138693;-70
2024/03/11 08:03:09;;;;;;;19.40;10.70;;;;;;;9.69;81.18;99667.34;111187;1206;100221;-72
2024/03/11 08:05:36;;;;;;;21.20;11.80;;;;;;;9.69;81.17;99669.12;110968;1206;140004;-71
2024/03/11 08:08:03;;;;;;;18.60;10.80;;;;;;;9.69;81.32;99673.06;110848;1209;97680;-69
2024/03/11 08:10:28;;;;;;;21.30;10.90;;;;;;;9.69;81.32;99672.17;110870;1205;95866;-71
2024/03/11 08:12:55;;;;;;;18.60;11.40;;;;;;;9.68;81.31;99676.66;110769;1212;139510;-71
2024/03/11 08:15:21;;;;;;;20.00;10.80;;;;;;;9.68;81.36;99677.36;110880;1211;107406;-71
2024/03/11 08:17:50;;;;;;;19.40;10.80;;;;;;;9.67;81.43;99684.23;110727;1209;139029;-71
2024/03/11 08:20:20;;;;;;;19.00;10.70;;;;;;;9.70;81.49;99682.27;110965;1206;98112;-71
2024/03/11 08:22:47;;;;;;;20.90;11.00;;;;;;;9.69;81.46;99681.42;110744;1209;111759;-72
2024/03/11 08:25:22;;;;;;;19.80;11.30;;;;;;;9.70;81.53;99684.60;110555;1206;138918;-71
2024/03/11 08:27:52;;;;;;;18.10;11.80;;;;;;;9.70;81.62;99683.00;110763;1209;109075;-72
2024/03/11 08:30:18;;;;;;;20.00;11.70;;;;;;;9.71;81.62;99687.58;110751;1206;139191;-71
2024/03/11 08:32:44;;;;;;;17.50;11.50;;;;;;;9.72;81.63;99687.35;111226;1209;97657;-71
2024/03/11 08:35:09;;;;;;;18.30;11.60;;;;;;;9.73;81.77;99692.98;110829;1209;97590;-72
2024/03/11 08:37:34;;;;;;;20.20;11.60;;;;;;;9.74;81.78;99696.65;110673;1209;139526;-72
2024/03/11 08:40:00;;;;;;;25.00;12.60;;;;;;;9.76;81.76;99701.73;110850;1206;98057;-72
2024/03/11 08:42:26;;;;;;;19.10;11.70;;;;;;;9.78;81.88;99698.63;110828;1205;139629;-72
2024/03/11 08:44:52;;;;;;;22.10;11.40;;;;;;;9.80;81.85;99703.52;110744;1209;101839;-71
2024/03/11 08:47:18;;;;;;;19.80;11.30;;;;;;;9.81;81.89;99700.60;110769;1205;139093;-69
2024/03/11 08:49:44;;;;;;;22.70;11.40;;;;;;;9.83;81.96;99699.42;111146;1209;97594;-69
2024/03/11 08:52:12;;;;;;;24.40;13.10;;;;;;;9.84;81.89;99700.42;110912;1205;111867;-71
2024/03/11 08:54:39;;;;;;;23.30;12.20;;;;;;;9.85;82.02;99703.92;110797;1209;138694;-72
2024/03/11 08:57:05;;;;;;;20.10;12.10;;;;;;;9.87;81.96;99704.73;110843;1205;98831;-72
2024/03/11 08:59:31;;;;;;;22.20;12.60;;;;;;;9.87;81.94;99709.36;110975;1205;139895;-72
2024/03/11 09:01:57;;;;;;;23.40;13.00;;;;;;;9.89;82.03;99712.09;111018;1212;96455;-72
2024/03/11 09:04:27;;;;;;;19.70;11.80;;;;;;;9.88;82.04;99712.83;110823;1209;99767;-71
2024/03/11 09:06:54;;;;;;;23.30;12.90;;;;;;;9.89;82.10;99711.75;110862;1205;138646;-69
2024/03/11 09:09:24;;;;;;;22.50;13.20;;;;;;;9.90;82.17;99713.99;111004;1206;98022;-71
2024/03/11 09:11:54;;;;;;;20.30;13.70;;;;;;;9.94;82.35;99714.14;110853;1211;139144;-71
2024/03/11 09:14:20;;;;;;;22.40;13.40;;;;;;;9.96;82.25;99711.52;110990;1209;111532;-71
2024/03/11 09:16:46;;;;;;;27.10;15.50;;;;;;;9.98;82.29;99713.90;110853;1205;97597;-71
2024/03/11 09:19:14;;;;;;;27.00;15.80;;;;;;;10.02;82.41;99714.05;110765;1211;139069;-71
2024/03/11 09:21:40;;;;;;;28.30;14.70;;;;;;;10.04;82.30;99714.78;110764;1209;98104;-71
2024/03/11 09:24:07;;;;;;;24.90;14.00;;;;;;;10.07;82.46;99718.55;110726;1205;139001;-71
2024/03/11 09:26:32;;;;;;;25.50;12.60;;;;;;;10.10;82.49;99719.13;110794;1206;97701;-72
2024/03/11 09:28:57;;;;;;;22.10;12.60;;;;;;;10.11;82.52;99716.20;110844;1209;97709;-71
2024/03/11 09:31:23;;;;;;;22.70;13.00;;;;;;;10.16;82.55;99721.45;110682;1206;138771;-72
2024/03/11 09:33:50;;;;;;;21.70;12.40;;;;;;;10.19;82.53;99722.92;110830;1209;97766;-71
2024/03/11 09:36:15;;;;;;;22.40;12.80;;;;;;;10.22;82.58;99725.11;110568;1206;138104;-72
2024/03/11 09:38:40;;;;;;;22.30;13.20;;;;;;;10.25;82.57;99727.23;110731;1210;97610;-72
2024/03/11 09:41:14;;;;;;;23.40;14.30;;;;;;;10.28;82.76;99725.79;110822;1209;98909;-71
2024/03/11 09:43:48;;;;;;;28.00;14.30;;;;;;;10.31;82.53;99731.52;111104;1209;145304;-72
2024/03/11 09:46:20;;;;;;;25.60;13.90;;;;;;;10.31;82.52;99728.66;110838;1209;107415;-71
2024/03/11 09:48:49;;;;;;;23.40;14.60;;;;;;;10.32;82.65;99729.88;110591;1209;138838;-72
2024/03/11 09:51:15;;;;;;;22.00;13.70;;;;;;;10.32;82.64;99734.90;110762;1206;97727;-68
2024/03/11 09:53:41;;;;;;;25.00;14.40;;;;;;;10.30;82.62;99732.65;111012;1206;139039;-68
2024/03/11 09:56:08;;;;;;;21.50;14.50;;;;;;;10.30;82.68;99735.55;111030;1205;100450;-68
2024/03/11 09:58:36;;;;;;;22.70;13.90;;;;;;;10.30;82.75;99733.89;110759;1205;97581;-68
2024/03/11 10:01:07;;;;;;;22.00;13.70;;;;;;;10.32;82.77;99740.08;110722;1205;140090;-68
2024/03/11 10:03:33;;;;;;;23.30;14.40;;;;;;;10.31;82.77;99747.78;111393;1205;110986;-67
2024/03/11 10:06:03;;;;;;;26.20;15.20;;;;;;;10.30;82.77;99748.89;111006;1206;139686;-67
2024/03/11 10:08:32;;;;;;;27.30;15.40;;;;;;;10.30;82.84;99752.10;111133;1206;107073;-67
2024/03/11 10:11:12;;;;;;;21.80;13.60;;;;;;;10.30;82.79;99750.72;111138;1205;97609;-67
2024/03/11 10:13:38;;;;;;;26.90;16.70;;;;;;;10.30;82.93;99751.06;111110;1209;138578;-67
2024/03/11 10:16:43;;;;;;;24.30;15.20;;;;;;;10.31;82.89;99750.07;111116;1211;97710;-66
2024/03/11 10:19:11;;;;;;;25.90;15.80;;;;;;;10.36;82.94;99749.27;111035;1205;139045;-67
2024/03/11 10:21:38;;;;;;;24.80;15.30;;;;;;;10.39;83.00;99753.55;111111;1206;107929;-67
2024/03/11 10:24:05;;;;;;;25.90;15.50;;;;;;;10.39;82.85;99755.33;110837;1209;140205;-68
2024/03/11 10:26:40;;;;;;;24.50;14.80;;;;;;;10.40;83.05;99753.85;110962;1205;97568;-67
2024/03/11 10:29:06;;;;;;;24.60;14.90;;;;;;;10.44;83.08;99754.00;110979;1211;111024;-67
2024/03/11 10:31:33;;;;;;;20.20;13.90;;;;;;;10.47;83.07;99756.87;110785;1205;138827;-68
2024/03/11 10:34:21;;;;;;;25.70;14.80;;;;;;;10.49;83.05;99757.08;111007;1209;97703;-68
2024/03/11 10:36:54;;;;;;;22.20;14.00;;;;;;;10.50;83.21;99756.30;110804;1209;138733;-68
2024/03/11 10:41:50;;;;;;;21.00;13.50;;;;;;;10.52;83.14;99757.27;110856;1209;140096;-67
2024/03/11 10:44:18;;;;;;;21.90;13.80;;;;;;;10.54;83.18;99761.10;111003;1211;99419;-68
2024/03/11 10:46:43;;;;;;;23.40;14.30;;;;;;;10.57;83.20;99761.11;110863;1205;107357;-68
2024/03/11 10:49:12;;;;;;;24.80;14.50;;;;;;;10.59;83.27;99766.68;110803;1209;138990;-66
2024/03/11 10:51:47;;;;;;;22.80;14.40;;;;;;;10.60;83.31;99766.07;110972;1205;96057;-67
2024/03/11 10:54:23;;;;;;;23.90;14.60;;;;;;;10.61;83.24;99769.96;110846;1210;139238;-67
2024/03/11 10:56:55;;;;;;;22.50;13.50;;;;;;;10.62;83.36;99768.13;110952;1209;99628;-67
2024/03/11 10:59:21;;;;;;;23.90;15.30;;;;;;;10.64;83.33;99768.55;110943;1209;139141;-69
2024/03/11 11:01:55;;;;;;;26.20;15.10;;;;;;;10.65;83.33;99769.75;110878;1206;97693;-68
2024/03/11 11:04:22;;;;;;;26.90;15.60;;;;;;;10.65;83.40;99769.71;110994;1206;97919;-68
2024/03/11 11:06:49;;;;;;;31.50;16.90;;;;;;;10.67;83.45;99772.29;110867;1206;138944;-68
2024/03/11 11:09:16;;;;;;;22.00;14.20;;;;;;;10.68;83.41;99778.52;111056;1209;97572;-67
2024/03/11 11:11:48;;;;;;;26.00;14.80;;;;;;;10.69;83.39;99779.65;110797;1209;139075;-67
2024/03/11 11:14:18;;;;;;;20.60;14.00;;;;;;;10.70;83.34;99783.17;110959;1209;97619;-67
2024/03/11 11:16:45;;;;;;;30.30;15.40;;;;;;;10.71;83.46;99784.39;110894;1206;101352;-67